Time;durP1;ratioP1;P1;durP2;ratioP2;P2;SDS_P1;SDS_P2;PMS_P1;PMS_P2;Temp;Humidity;BMP_temperature;BMP_pressure;BME280_temperature;BME280_humidity;BME280_pressure;Samples;Min_cycle;Max_cycle;Signal;HPM_P1;HPM_P2
2023/03/27 00:01:11;;;;;;;15.50;5.65;;;5.80;99.90;;;4.88;100.00;96892.09;5029237;28;20145;-74
2023/03/27 00:03:39;;;;;;;18.55;4.78;;;5.80;99.90;;;4.96;100.00;96897.84;5044662;28;20113;-75
2023/03/27 00:06:15;;;;;;;12.73;4.65;;;5.80;99.90;;;4.87;100.00;96896.38;5038698;28;20045;-75
2023/03/27 00:08:45;;;;;;;11.98;4.10;;;5.70;99.90;;;4.80;100.00;96902.63;5044510;28;20049;-74
2023/03/27 00:11:13;;;;;;;16.48;4.82;;;5.70;99.90;;;4.82;100.00;96900.84;5041910;28;20045;-75
2023/03/27 00:13:40;;;;;;;15.95;4.68;;;5.60;99.90;;;4.81;100.00;96904.28;5059425;28;20127;-75
2023/03/27 00:16:25;;;;;;;17.75;4.90;;;5.60;99.90;;;4.79;100.00;96918.94;5045157;28;20071;-75
2023/03/27 00:18:53;;;;;;;20.95;4.68;;;5.60;99.90;;;4.71;100.00;96913.19;5057790;28;20423;-74
2023/03/27 00:21:21;;;;;;;18.35;4.72;;;5.70;99.90;;;4.80;100.00;96926.59;5046023;28;20475;-74
2023/03/27 00:23:49;;;;;;;15.90;4.35;;;5.60;99.90;;;4.76;100.00;96929.28;5044586;28;20059;-75
2023/03/27 00:26:17;;;;;;;14.77;5.78;;;5.60;99.90;;;4.74;100.00;96933.63;5047542;28;20051;-74
2023/03/27 00:28:44;;;;;;;13.20;4.22;;;5.60;99.90;;;4.73;100.00;96929.41;5045381;28;20160;-75
2023/03/27 00:31:13;;;;;;;12.48;4.53;;;5.70;99.90;;;4.79;100.00;96930.06;5044151;28;20049;-74
2023/03/27 00:33:43;;;;;;;18.08;4.35;;;5.70;99.90;;;4.73;100.00;96931.97;5043475;28;20045;-75
2023/03/27 00:36:10;;;;;;;20.42;5.28;;;5.70;99.90;;;4.67;100.00;96939.84;5041255;28;20056;-75
2023/03/27 00:38:38;;;;;;;15.43;4.47;;;5.60;99.90;;;4.68;100.00;96947.53;5060230;28;20056;-74
2023/03/27 00:41:06;;;;;;;15.18;4.20;;;5.50;99.90;;;4.65;100.00;96945.03;5043853;28;20453;-74
2023/03/27 00:43:42;;;;;;;18.23;5.20;;;5.50;99.90;;;4.69;100.00;96949.19;5045473;28;20052;-75
2023/03/27 00:46:41;;;;;;;12.35;4.15;;;5.50;99.90;;;4.58;100.00;96964.97;5043778;28;20052;-75
2023/03/27 00:49:11;;;;;;;18.50;5.18;;;5.60;99.90;;;4.65;100.00;96970.72;5043877;28;20050;-75
2023/03/27 00:51:41;;;;;;;21.98;6.25;;;5.50;99.90;;;4.53;100.00;96974.50;5044295;28;20359;-75
2023/03/27 00:54:10;;;;;;;12.90;4.95;;;5.50;99.90;;;4.61;100.00;96979.44;5057508;28;20048;-75
2023/03/27 00:56:37;;;;;;;18.27;5.68;;;5.50;99.90;;;4.58;100.00;96987.22;5030003;28;20045;-75
2023/03/27 00:59:11;;;;;;;11.30;5.00;;;5.40;99.90;;;4.48;100.00;96981.50;5045684;28;20154;-75
2023/03/27 01:01:39;;;;;;;;;;;5.30;99.90;;;4.55;100.00;96987.31;5058951;28;20492;-75
2023/03/27 01:04:07;;;;;;;12.70;5.60;;;5.40;99.90;;;4.50;100.00;97002.03;5046503;28;19924;-75
2023/03/27 01:06:37;;;;;;;17.83;5.55;;;5.30;99.90;;;4.48;100.00;97004.63;5059688;28;20171;-76
2023/03/27 01:09:04;;;;;;;15.45;5.68;;;5.30;99.90;;;4.47;100.00;97014.94;5042707;28;20049;-75
2023/03/27 01:11:50;;;;;;;17.45;4.75;;;5.30;99.90;;;4.51;100.00;97009.69;5042959;28;20156;-76
2023/03/27 01:14:47;;;;;;;19.25;5.25;;;5.40;99.90;;;4.47;100.00;97020.09;5040528;28;20047;-76
2023/03/27 01:17:55;;;;;;;12.82;5.28;;;5.30;99.90;;;4.36;100.00;97021.22;5042670;28;20057;-76
2023/03/27 01:20:59;;;;;;;16.35;5.53;;;5.20;99.90;;;4.38;100.00;97026.34;5041276;28;20068;-76
2023/03/27 01:23:53;;;;;;;10.45;4.45;;;5.20;99.90;;;4.33;100.00;97034.19;5040572;28;20053;-76
2023/03/27 01:27:00;;;;;;;13.88;4.80;;;5.30;99.90;;;4.26;100.00;97032.63;5046162;28;20060;-76
2023/03/27 01:29:33;;;;;;;17.17;4.60;;;5.20;99.90;;;4.28;100.00;97038.56;5056973;28;20407;-76
2023/03/27 01:32:20;;;;;;;;;;;5.20;99.90;;;4.22;100.00;97043.03;5041914;28;20076;-76
2023/03/27 01:35:22;;;;;;;11.13;4.43;;;5.20;99.90;;;4.25;100.00;97043.78;5022032;28;19929;-76
2023/03/27 01:38:17;;;;;;;15.60;4.40;;;5.10;99.90;;;4.17;100.00;97053.41;5043558;28;20122;-76
2023/03/27 01:41:08;;;;;;;11.65;4.63;;;5.00;99.90;;;4.17;100.00;97051.72;5056861;28;20046;-75
2023/03/27 01:43:39;;;;;;;7.70;3.85;;;5.00;99.90;;;4.05;100.00;97049.44;5027843;28;20045;-76
2023/03/27 01:46:15;;;;;;;15.55;5.32;;;5.10;99.90;;;4.09;100.00;97063.91;5054073;28;20123;-75
2023/03/27 01:48:52;;;;;;;13.45;4.70;;;5.00;99.90;;;4.13;100.00;97057.81;5038907;28;20129;-76
2023/03/27 01:51:48;;;;;;;12.50;4.57;;;5.00;99.90;;;4.09;100.00;97063.91;5041654;28;20458;-75
2023/03/27 01:54:28;;;;;;;9.70;5.30;;;4.90;99.90;;;4.17;100.00;97071.41;5044081;28;20526;-75
2023/03/27 01:57:26;;;;;;;10.35;5.57;;;4.90;99.90;;;4.10;100.00;97087.84;5054851;28;20533;-76
2023/03/27 01:59:59;;;;;;;16.17;4.97;;;4.90;99.90;;;3.97;100.00;97095.84;5052998;28;20492;-76
2023/03/27 02:02:53;;;;;;;12.85;5.13;;;4.90;99.90;;;3.97;100.00;97101.00;5040345;28;20057;-75
2023/03/27 02:05:28;;;;;;;11.88;4.10;;;4.90;99.90;;;3.91;100.00;97100.28;5060048;28;20057;-75
2023/03/27 02:08:14;;;;;;;9.88;3.47;;;4.80;99.90;;;3.97;100.00;97107.88;5039862;28;20564;-75
2023/03/27 02:10:49;;;;;;;11.27;3.30;;;4.80;99.90;;;3.84;100.00;97099.59;5043354;28;20049;-76
2023/03/27 02:13:27;;;;;;;7.50;2.78;;;4.80;99.90;;;3.74;100.00;97095.53;5043100;28;20488;-76
2023/03/27 02:15:57;;;;;;;10.63;2.45;;;4.80;99.90;;;3.81;100.00;97109.94;5038928;28;20485;-75
2023/03/27 02:18:34;;;;;;;12.77;3.70;;;4.70;99.90;;;3.72;100.00;97105.03;5025472;28;20056;-75
2023/03/27 02:21:03;;;;;;;11.85;3.13;;;4.70;99.90;;;3.54;100.00;97116.53;5043753;28;20149;-76
2023/03/27 02:23:30;;;;;;;10.20;2.08;;;4.60;99.90;;;3.45;100.00;97124.44;5043742;28;20045;-75
2023/03/27 02:25:58;;;;;;;9.15;1.98;;;4.50;99.90;;;3.42;100.00;97125.34;5026184;28;20526;-75
2023/03/27 02:28:44;;;;;;;12.98;2.15;;;4.40;99.90;;;3.47;100.00;97135.53;5040917;28;20083;-75
2023/03/27 02:31:20;;;;;;;11.90;2.03;;;4.50;99.90;;;3.30;100.00;97136.69;5040286;28;20460;-75
2023/03/27 02:34:32;;;;;;;12.43;1.90;;;4.50;99.90;;;3.36;100.00;97133.16;5042453;28;20045;-75
2023/03/27 02:37:21;;;;;;;9.52;2.42;;;4.40;99.90;;;3.26;100.00;97147.03;5055706;28;20136;-75
2023/03/27 02:40:09;;;;;;;11.05;2.05;;;4.30;99.90;;;3.30;100.00;97153.81;5057104;28;20045;-75
2023/03/27 02:43:02;;;;;;;12.60;1.60;;;4.30;99.90;;;3.16;100.00;97187.44;5039349;28;20053;-75
2023/03/27 02:45:46;;;;;;;15.05;1.77;;;4.30;99.90;;;3.18;100.00;97177.16;5040668;28;20046;-75
2023/03/27 02:48:22;;;;;;;;;;;4.20;99.90;;;3.08;100.00;97179.03;5038788;28;20406;-75
2023/03/27 02:50:51;;;;;;;10.90;1.60;;;4.10;99.90;;;2.96;100.00;97182.69;5059610;28;20302;-75
2023/03/27 02:53:22;;;;;;;10.85;1.67;;;4.10;99.90;;;2.96;100.00;97185.25;5040183;28;20091;-75
2023/03/27 02:55:59;;;;;;;13.77;1.95;;;4.00;99.90;;;2.93;100.00;97193.00;5053983;28;20046;-75
2023/03/27 02:58:48;;;;;;;13.77;1.77;;;4.00;99.90;;;2.69;100.00;97207.06;5042830;28;20141;-75
2023/03/27 03:01:18;;;;;;;11.98;1.75;;;3.90;99.90;;;2.54;100.00;97213.31;5041745;28;20061;-75
2023/03/27 03:03:56;;;;;;;8.35;1.38;;;3.70;99.90;;;2.34;100.00;97229.00;5043563;28;20076;-75
2023/03/27 03:06:29;;;;;;;12.32;1.42;;;3.60;99.90;;;2.14;100.00;97219.06;5055252;28;20055;-75
2023/03/27 03:09:04;;;;;;;12.32;1.48;;;3.40;99.90;;;2.05;100.00;97237.97;5043621;28;20048;-75
2023/03/27 03:11:38;;;;;;;15.43;2.10;;;3.20;99.90;;;1.86;100.00;97246.78;5039629;28;20098;-75
2023/03/27 03:14:05;;;;;;;11.25;1.80;;;3.10;99.90;;;1.81;100.00;97261.34;5042262;28;20061;-75
2023/03/27 03:16:32;;;;;;;11.80;1.75;;;3.00;99.90;;;1.72;100.00;97267.41;5045307;28;20053;-75
2023/03/27 03:19:00;;;;;;;13.05;2.20;;;3.00;99.90;;;1.65;100.00;97269.22;5042175;28;20049;-75
2023/03/27 03:21:28;;;;;;;8.80;1.65;;;2.80;99.90;;;1.56;100.00;97277.00;5045839;28;20049;-76
2023/03/27 03:23:55;;;;;;;9.48;1.60;;;2.80;99.90;;;1.55;100.00;97294.91;5042419;28;20460;-76
2023/03/27 03:26:25;;;;;;;14.32;2.35;;;2.70;99.90;;;1.51;100.00;97291.56;5044074;28;20091;-75
2023/03/27 03:28:57;;;;;;;13.98;2.10;;;2.60;99.90;;;1.45;100.00;97287.34;5047199;28;20053;-75
2023/03/27 03:31:42;;;;;;;9.07;1.70;;;2.60;99.90;;;1.38;100.00;97307.88;5046378;28;20050;-75
2023/03/27 03:34:15;;;;;;;;;;;2.50;99.90;;;1.38;100.00;97305.34;5027730;28;20109;-75
2023/03/27 03:36:47;;;;;;;15.00;2.15;;;2.50;99.90;;;1.28;100.00;97307.16;5060948;28;20387;-75
2023/03/27 03:39:17;;;;;;;16.23;1.95;;;2.50;99.90;;;1.28;100.00;97319.06;5059777;28;20044;-75
2023/03/27 03:41:44;;;;;;;14.57;1.80;;;2.40;99.90;;;1.20;100.00;97314.03;5030994;28;20046;-75
2023/03/27 03:44:11;;;;;;;14.50;2.03;;;2.30;99.90;;;1.15;100.00;97321.75;5043625;28;20051;-75
2023/03/27 03:46:39;;;;;;;14.20;2.00;;;2.30;99.90;;;1.13;100.00;97325.19;5046053;28;20049;-75
2023/03/27 03:49:06;;;;;;;13.52;1.52;;;2.30;99.90;;;1.13;100.00;97335.41;5045284;28;20060;-74
2023/03/27 03:51:35;;;;;;;14.30;1.95;;;2.20;99.90;;;1.09;100.00;97349.06;5056929;28;20054;-75
2023/03/27 03:54:04;;;;;;;14.50;1.75;;;2.20;99.90;;;1.12;100.00;97359.25;5030806;28;20045;-75
2023/03/27 03:56:33;;;;;;;12.82;1.70;;;2.20;99.90;;;1.07;100.00;97373.78;5043014;28;20602;-75
2023/03/27 03:59:00;;;;;;;15.02;1.80;;;2.20;99.90;;;1.08;100.00;97368.69;5046318;28;20040;-74
2023/03/27 04:01:27;;;;;;;11.77;1.80;;;2.10;99.90;;;1.03;100.00;97373.81;5044746;28;20060;-75
2023/03/27 04:03:55;;;;;;;13.18;1.35;;;2.10;99.90;;;1.04;100.00;97378.06;5041626;28;20051;-75
2023/03/27 04:06:25;;;;;;;19.27;2.20;;;2.10;99.90;;;1.02;100.00;97382.34;5039791;28;20073;-75
2023/03/27 04:08:52;;;;;;;12.68;2.03;;;2.10;99.90;;;0.92;100.00;97385.00;5048014;28;20482;-75
2023/03/27 04:11:22;;;;;;;13.55;1.80;;;2.10;99.90;;;0.95;100.00;97397.75;5045060;28;20045;-75
2023/03/27 04:13:49;;;;;;;10.07;1.52;;;2.10;99.90;;;0.94;100.00;97408.84;5044784;28;20080;-75
2023/03/27 04:16:16;;;;;;;10.73;2.00;;;2.00;99.90;;;1.00;100.00;97422.44;5054457;28;20067;-75
2023/03/27 04:18:45;;;;;;;20.00;2.20;;;2.10;99.90;;;1.02;100.00;97428.34;5044958;28;20060;-75
2023/03/27 04:21:14;;;;;;;19.30;1.38;;;2.10;99.90;;;1.00;100.00;97424.97;5044191;28;20052;-75
2023/03/27 04:23:44;;;;;;;17.00;2.00;;;2.10;99.90;;;1.02;100.00;97435.16;5043052;28;20046;-75
2023/03/27 04:26:11;;;;;;;16.00;2.78;;;2.10;99.90;;;1.01;100.00;97431.78;5059742;28;20540;-75
2023/03/27 04:28:39;;;;;;;13.95;2.22;;;2.10;99.90;;;0.99;100.00;97442.88;5058308;28;20419;-75
2023/03/27 04:31:09;;;;;;;11.00;1.65;;;2.10;99.90;;;1.01;100.00;97446.25;5041988;28;20041;-75
2023/03/27 04:33:38;;;;;;;14.85;1.80;;;2.20;99.90;;;0.99;100.00;97456.50;5042404;28;20052;-74
2023/03/27 04:36:07;;;;;;;12.70;2.00;;;2.10;99.90;;;0.91;100.00;97455.69;5044218;28;20134;-74
2023/03/27 04:38:36;;;;;;;10.80;2.08;;;2.10;99.90;;;0.89;100.00;97456.56;5057121;28;20048;-74
2023/03/27 04:41:04;;;;;;;15.82;1.70;;;2.00;99.90;;;0.90;100.00;97463.38;5043434;28;20429;-75
2023/03/27 04:43:35;;;;;;;16.80;1.80;;;2.00;99.90;;;0.88;100.00;97462.53;5043653;28;20108;-75
2023/03/27 04:46:06;;;;;;;14.57;1.27;;;2.00;99.90;;;0.91;100.00;97475.28;5044389;28;20041;-75
2023/03/27 04:48:37;;;;;;;14.45;1.77;;;2.00;99.90;;;0.95;100.00;97475.25;5044093;28;20056;-75
2023/03/27 04:51:07;;;;;;;12.48;1.58;;;2.00;99.90;;;0.98;100.00;97482.03;5042960;28;20045;-74
2023/03/27 04:53:36;;;;;;;9.43;1.35;;;2.10;99.90;;;0.95;100.00;97482.06;5042715;28;20139;-74
2023/03/27 04:56:05;;;;;;;17.05;1.88;;;2.00;99.90;;;0.88;100.00;97478.72;5043505;28;20140;-75
2023/03/27 04:58:32;;;;;;;12.70;1.58;;;2.00;99.90;;;0.95;100.00;97489.75;5027616;28;20045;-75
2023/03/27 05:01:04;;;;;;;12.50;1.73;;;2.10;99.90;;;0.90;100.00;97491.47;5045179;28;20044;-75
2023/03/27 05:03:33;;;;;;;17.55;1.60;;;2.10;99.90;;;0.83;100.00;97501.72;5056879;28;20491;-75
2023/03/27 05:06:03;;;;;;;11.85;1.65;;;2.00;99.90;;;0.88;100.00;97503.41;5038421;28;20601;-75
2023/03/27 05:08:31;;;;;;;12.75;2.05;;;2.00;99.90;;;0.85;100.00;97508.56;5042572;28;20049;-75
2023/03/27 05:10:58;;;;;;;13.55;1.90;;;2.00;99.90;;;0.90;100.00;97510.22;5039840;28;20045;-75
2023/03/27 05:13:27;;;;;;;9.40;1.35;;;2.00;99.90;;;0.83;100.00;97519.63;5040391;28;20045;-75
2023/03/27 05:15:54;;;;;;;18.45;1.95;;;1.90;99.90;;;0.83;100.00;97518.78;5041749;28;20126;-75
2023/03/27 05:18:21;;;;;;;15.60;1.90;;;2.00;99.90;;;0.94;100.00;97519.56;5042280;28;20053;-75
2023/03/27 05:20:49;;;;;;;15.50;1.95;;;2.00;99.90;;;0.92;100.00;97523.00;5042641;28;20055;-75
2023/03/27 05:23:16;;;;;;;14.32;1.98;;;2.00;99.90;;;0.99;100.00;97525.50;5047859;28;20127;-75
2023/03/27 05:25:44;;;;;;;15.23;2.58;;;2.00;99.90;;;1.00;100.00;97544.22;5042436;28;20144;-75
2023/03/27 05:28:28;;;;;;;12.50;1.60;;;2.10;99.90;;;1.06;100.00;97558.72;5054100;28;20503;-75
2023/03/27 05:30:56;;;;;;;13.55;1.92;;;2.20;99.90;;;1.11;100.00;97562.91;5039835;28;20103;-75
2023/03/27 05:33:24;;;;;;;9.93;1.67;;;2.20;99.90;;;1.10;100.00;97568.06;5044675;28;20045;-75
2023/03/27 05:35:52;;;;;;;9.80;1.70;;;2.20;99.90;;;1.08;100.00;97577.44;5043373;28;20047;-75
2023/03/27 05:38:21;;;;;;;14.32;2.10;;;2.20;99.90;;;1.10;100.00;97575.72;5042418;28;20160;-75
2023/03/27 05:40:48;;;;;;;14.60;2.05;;;2.10;99.90;;;0.96;100.00;97579.19;5046510;28;20057;-74
2023/03/27 05:43:15;;;;;;;13.95;1.83;;;2.10;99.90;;;1.02;100.00;97586.81;5041718;28;20053;-75
2023/03/27 05:45:43;;;;;;;12.48;2.05;;;2.10;99.90;;;0.95;100.00;97600.47;5040408;28;20156;-75
2023/03/27 05:48:11;;;;;;;12.15;1.58;;;2.10;99.90;;;1.06;100.00;97597.03;5040550;28;20533;-75
2023/03/27 05:50:39;;;;;;;13.80;1.70;;;2.10;99.90;;;1.04;100.00;97604.72;5042897;28;20049;-75
2023/03/27 05:53:09;;;;;;;12.20;2.10;;;2.10;99.90;;;1.01;100.00;97609.84;5046748;28;20143;-75
2023/03/27 05:55:37;;;;;;;14.43;1.90;;;2.10;99.90;;;1.01;100.00;97613.25;5046758;28;20137;-75
2023/03/27 05:58:08;;;;;;;11.65;1.95;;;2.10;99.90;;;0.99;100.00;97614.94;5041607;28;20507;-75
2023/03/27 06:00:37;;;;;;;12.77;1.77;;;2.10;99.90;;;1.02;100.00;97616.66;5055554;28;20491;-75
2023/03/27 06:03:05;;;;;;;16.25;2.22;;;2.10;99.90;;;1.09;100.00;97622.59;5044682;28;20131;-75
2023/03/27 06:05:33;;;;;;;13.65;1.60;;;2.10;99.90;;;1.08;100.00;97631.97;5044899;28;20080;-75
2023/03/27 06:08:01;;;;;;;8.15;1.85;;;2.10;99.90;;;1.02;100.00;97616.66;5041060;28;20053;-75
2023/03/27 06:10:29;;;;;;;12.27;1.88;;;2.20;99.90;;;1.01;100.00;97632.84;5038044;28;20053;-75
2023/03/27 06:13:07;;;;;;;12.55;1.88;;;2.10;99.90;;;1.06;100.00;97636.22;5028748;28;20048;-74
2023/03/27 06:15:41;;;;;;;12.75;1.98;;;2.10;99.90;;;0.98;100.00;97645.63;5028716;28;20076;-75
2023/03/27 06:18:09;;;;;;;11.38;1.40;;;2.10;99.90;;;0.96;100.00;97649.91;5019654;28;20041;-75
2023/03/27 06:20:38;;;;;;;16.65;2.15;;;2.10;99.90;;;0.91;100.00;97656.72;5041581;28;20037;-75
2023/03/27 06:23:07;;;;;;;9.40;1.50;;;2.10;99.90;;;0.98;100.00;97663.50;5043840;28;20497;-75
2023/03/27 06:25:37;;;;;;;11.38;2.13;;;2.00;99.90;;;0.97;100.00;97664.38;5043216;28;20095;-75
2023/03/27 06:28:08;;;;;;;9.27;1.67;;;2.00;99.90;;;0.97;100.00;97667.78;5024535;28;20070;-75
2023/03/27 06:30:37;;;;;;;18.08;2.50;;;2.10;99.90;;;1.06;100.00;97679.69;5038462;28;20219;-75
2023/03/27 06:33:06;;;;;;;15.60;2.17;;;2.10;99.90;;;1.11;100.00;97682.22;5039800;28;20044;-76
2023/03/27 06:35:34;;;;;;;13.13;2.33;;;2.20;99.90;;;1.20;100.00;97687.31;5042549;28;20052;-75
2023/03/27 06:38:02;;;;;;;13.05;1.67;;;2.20;99.90;;;1.22;100.00;97685.59;5038586;28;20134;-75
2023/03/27 06:40:34;;;;;;;9.73;1.95;;;2.30;99.90;;;1.36;100.00;97696.63;5041740;28;20135;-75
2023/03/27 06:43:07;;;;;;;10.65;1.55;;;2.30;99.90;;;1.49;100.00;97692.31;5045329;28;20057;-75
2023/03/27 06:45:37;;;;;;;;;;;2.30;99.90;;;1.44;100.00;97694.03;5059904;28;20053;-76
2023/03/27 06:48:05;;;;;;;14.30;1.83;;;2.40;99.90;;;1.48;100.00;97707.66;5043910;28;19925;-75
2023/03/27 06:50:45;;;;;;;12.00;1.77;;;2.40;99.90;;;1.53;100.00;97713.59;5046437;28;20047;-75
2023/03/27 06:53:16;;;;;;;18.20;2.05;;;2.50;99.90;;;1.65;100.00;97718.66;5046655;28;20052;-75
2023/03/27 06:55:47;;;;;;;16.60;1.83;;;2.60;99.90;;;1.84;100.00;97727.09;5053147;28;20052;-75
2023/03/27 06:58:17;;;;;;;12.02;1.52;;;2.70;99.90;;;1.90;100.00;97719.38;5046413;28;20045;-75
2023/03/27 07:00:47;;;;;;;10.88;1.65;;;2.80;99.90;;;1.99;100.00;97737.25;5048131;28;20423;-75
2023/03/27 07:03:16;;;;;;;13.75;2.72;;;2.90;99.90;;;2.22;100.00;97733.69;5045237;28;20423;-75
2023/03/27 07:05:44;;;;;;;12.90;1.80;;;3.00;99.90;;;2.45;100.00;97738.66;5047337;28;20062;-76
2023/03/27 07:08:17;;;;;;;15.55;1.67;;;3.20;99.90;;;2.47;100.00;97739.50;5043261;28;20507;-76
2023/03/27 07:10:54;;;;;;;13.50;1.75;;;3.30;99.90;;;2.54;100.00;97742.84;5057358;28;20049;-76
2023/03/27 07:13:39;;;;;;;9.90;1.58;;;3.40;99.90;;;2.44;100.00;97748.06;5046079;28;20081;-75
2023/03/27 07:16:10;;;;;;;8.77;1.45;;;3.50;99.90;;;2.63;100.00;97751.31;5047670;28;20140;-75
2023/03/27 07:18:38;;;;;;;11.00;1.83;;;3.60;99.90;;;2.91;100.00;97766.44;5045611;28;20061;-75
2023/03/27 07:21:07;;;;;;;11.20;1.80;;;3.70;99.90;;;2.97;100.00;97760.44;5046041;28;20133;-75
2023/03/27 07:23:36;;;;;;;10.65;1.63;;;3.80;99.90;;;3.16;100.00;97759.38;5039494;28;20060;-75
2023/03/27 07:26:03;;;;;;;17.30;1.92;;;3.90;99.90;;;3.17;100.00;97771.34;5059628;28;20056;-75
2023/03/27 07:28:31;;;;;;;9.65;1.17;;;4.10;99.90;;;3.01;100.00;97768.09;5044138;28;20049;-75
2023/03/27 07:31:08;;;;;;;8.07;1.50;;;4.20;99.90;;;3.34;100.00;97776.28;5045320;28;20045;-75
2023/03/27 07:33:51;;;;;;;6.88;1.02;;;4.30;99.90;;;3.40;100.00;97791.63;5046260;28;20399;-75
2023/03/27 07:36:18;;;;;;;9.13;1.30;;;4.30;99.90;;;3.18;100.00;97810.66;5043372;28;20599;-75
2023/03/27 07:38:46;;;;;;;13.00;1.40;;;4.30;99.90;;;3.29;100.00;97798.59;5046796;28;20559;-75
2023/03/27 07:41:13;;;;;;;12.48;1.70;;;4.20;99.90;;;3.51;100.00;97812.91;5043266;28;20045;-75
2023/03/27 07:43:40;;;;;;;9.18;1.45;;;4.30;99.90;;;3.27;100.00;97808.84;5044819;28;20136;-76
2023/03/27 07:46:07;;;;;;;8.02;1.25;;;4.30;99.90;;;3.24;100.00;97821.72;5043479;28;20124;-75
2023/03/27 07:48:35;;;;;;;12.23;1.95;;;4.20;99.90;;;3.09;100.00;97816.72;5044733;28;20045;-75
2023/03/27 07:51:02;;;;;;;14.80;1.85;;;4.30;99.90;;;2.98;100.00;97824.50;5057012;28;20068;-75
2023/03/27 07:53:40;;;;;;;12.10;1.40;;;4.20;99.90;;;2.80;100.00;97828.06;5027617;28;20046;-76
2023/03/27 07:56:08;;;;;;;9.15;1.30;;;4.10;99.90;;;3.00;100.00;97821.94;5057510;28;20053;-76
2023/03/27 07:58:35;;;;;;;12.30;1.95;;;4.00;99.90;;;3.85;100.00;97820.19;5042761;28;20817;-75
2023/03/27 08:01:03;;;;;;;9.40;1.15;;;4.20;99.90;;;4.71;100.00;97826.75;5042610;28;20075;-75
2023/03/27 08:03:30;;;;;;;8.93;1.33;;;4.50;99.90;;;4.44;100.00;97827.16;5043954;28;20057;-76
2023/03/27 08:05:59;;;;;;;10.65;1.83;;;4.70;99.90;;;4.42;100.00;97834.88;5045276;28;20136;-76
2023/03/27 08:08:27;;;;;;;11.45;1.55;;;4.90;99.90;;;3.93;100.00;97844.06;5023687;28;20107;-76
2023/03/27 08:10:55;;;;;;;15.60;3.25;;;4.80;99.90;;;3.29;100.00;97853.31;5056956;28;20047;-75
2023/03/27 08:13:23;;;;;;;11.80;1.75;;;4.60;99.90;;;3.25;100.00;97848.22;5046501;28;20045;-75
2023/03/27 08:15:50;;;;;;;11.15;2.22;;;4.40;99.90;;;3.27;100.00;97854.19;5043579;28;20045;-75
2023/03/27 08:18:17;;;;;;;10.57;2.05;;;4.40;99.90;;;4.35;100.00;97853.81;5041763;28;20068;-76
2023/03/27 08:20:46;;;;;;;15.95;1.73;;;5.20;99.90;;;4.86;100.00;97864.25;5057744;28;20048;-76
2023/03/27 08:23:14;;;;;;;12.38;1.30;;;6.20;99.90;;;5.22;100.00;97856.81;5045953;28;20045;-76
2023/03/27 08:25:41;;;;;;;11.35;1.27;;;7.60;99.90;;;6.13;100.00;97856.00;5045774;28;20049;-76
2023/03/27 08:28:08;;;;;;;11.48;1.83;;;8.10;99.90;;;7.50;100.00;97837.38;5044409;28;20044;-75
2023/03/27 08:30:36;;;;;;;8.15;1.17;;;9.20;99.90;;;7.25;100.00;97850.06;5041832;28;20076;-75
2023/03/27 08:33:03;;;;;;;9.50;1.60;;;9.30;99.90;;;8.04;100.00;97854.03;5046471;28;20144;-75
2023/03/27 08:35:30;;;;;;;14.60;1.40;;;9.70;99.90;;;8.21;100.00;97845.78;5044229;28;20132;-75
2023/03/27 08:37:57;;;;;;;9.30;1.67;;;10.40;99.90;;;6.84;100.00;97857.94;5040967;28;20049;-75
2023/03/27 08:40:29;;;;;;;12.25;1.60;;;9.70;99.90;;;6.10;100.00;97858.66;5054908;28;20505;-75
2023/03/27 08:43:03;;;;;;;9.63;1.55;;;8.50;99.90;;;5.66;100.00;97874.06;5041221;28;20045;-76
2023/03/27 08:46:04;;;;;;;9.50;1.55;;;7.70;99.90;;;4.95;100.00;97879.56;5039350;28;20072;-75
2023/03/27 08:48:41;;;;;;;9.82;1.00;;;6.70;99.90;;;4.71;100.00;97885.06;5059402;28;20517;-75
2023/03/27 08:51:39;;;;;;;8.10;1.27;;;6.20;99.90;;;4.68;100.00;97882.53;5044589;28;20049;-75
2023/03/27 08:54:25;;;;;;;10.50;1.58;;;5.70;99.90;;;4.56;100.00;97884.41;5022545;28;20440;-75
2023/03/27 08:56:52;;;;;;;9.18;0.90;;;5.70;99.90;;;4.58;100.00;97885.22;5036922;28;20049;-75
2023/03/27 08:59:22;;;;;;;9.10;1.40;;;5.70;99.90;;;4.42;100.00;97883.72;5041610;28;20144;-75
2023/03/27 09:02:07;;;;;;;9.80;1.42;;;5.60;99.90;;;4.73;100.00;97888.44;5043282;28;20053;-75
2023/03/27 09:04:59;;;;;;;10.43;1.30;;;5.70;99.90;;;7.24;100.00;97875.03;5041636;28;20522;-75
2023/03/27 09:08:01;;;;;;;5.90;1.00;;;7.40;99.90;;;7.25;100.00;97878.47;5042199;28;20072;-75
2023/03/27 09:10:44;;;;;;;9.13;1.17;;;8.00;99.90;;;7.89;100.00;97875.94;5042601;28;20081;-76
2023/03/27 09:14:00;;;;;;;7.78;1.10;;;8.90;99.90;;;7.04;100.00;97885.00;5042995;28;20056;-76
2023/03/27 09:16:35;;;;;;;7.07;0.90;;;8.80;99.90;;;6.29;100.00;97879.75;5030730;28;20053;-76
2023/03/27 09:19:23;;;;;;;11.88;1.10;;;8.00;99.90;;;6.53;100.00;97880.97;5042501;28;20049;-75
2023/03/27 09:22:46;;;;;;;6.07;0.90;;;7.90;99.90;;;7.08;100.00;97871.13;5060370;28;20119;-75
2023/03/27 09:25:32;;;;;;;7.63;1.20;;;8.70;99.90;;;7.39;100.00;97873.81;5057488;28;20052;-75
2023/03/27 09:28:21;;;;;;;13.77;1.25;;;8.30;99.90;;;7.79;100.00;97872.78;5011109;28;20044;-75
2023/03/27 09:30:48;;;;;;;6.15;0.80;;;8.80;99.90;;;9.67;100.00;97870.56;5054268;28;20613;-75
2023/03/27 09:33:16;;;;;;;8.82;1.38;;;9.10;99.90;;;9.00;100.00;97878.78;5042202;28;20037;-75
2023/03/27 09:35:44;;;;;;;7.80;1.15;;;9.80;99.90;;;7.10;100.00;97890.00;5041799;28;20041;-75
2023/03/27 09:38:23;;;;;;;7.05;1.00;;;9.10;99.50;;;7.36;100.00;97891.97;5041177;28;20052;-74
2023/03/27 09:41:17;;;;;;;7.93;1.27;;;8.30;99.90;;;6.51;100.00;97893.06;5039227;28;20414;-73
2023/03/27 09:44:24;;;;;;;6.97;1.35;;;8.20;99.90;;;6.47;100.00;97909.47;5043894;28;20523;-75
2023/03/27 09:47:14;;;;;;;5.88;1.20;;;7.90;99.90;;;7.86;100.00;97884.63;5043124;28;20045;-75
2023/03/27 09:49:53;;;;;;;6.88;1.27;;;8.40;99.90;;;9.30;100.00;97876.94;5057472;28;20052;-74
2023/03/27 09:52:40;;;;;;;6.93;1.00;;;9.20;99.90;;;9.86;100.00;97867.34;5043627;28;20055;-75
2023/03/27 09:55:29;;;;;;;9.35;1.35;;;10.00;99.40;;;8.40;100.00;97890.94;5054325;28;20053;-74
2023/03/27 09:58:17;;;;;;;9.65;1.23;;;9.50;99.90;;;7.40;100.00;97888.41;5053562;28;20704;-74
2023/03/27 10:00:44;;;;;;;5.55;1.15;;;8.90;99.90;;;6.96;100.00;97886.91;5039725;28;20053;-74
2023/03/27 10:03:17;;;;;;;7.40;1.40;;;8.70;99.90;;;7.44;100.00;97902.13;5038765;28;20051;-73
2023/03/27 10:05:45;;;;;;;7.20;1.20;;;8.40;99.90;;;6.90;100.00;97903.38;5057982;28;20044;-73
2023/03/27 10:08:43;;;;;;;7.78;1.50;;;8.00;99.90;;;6.84;100.00;97901.78;5040967;28;20479;-73
2023/03/27 10:11:21;;;;;;;9.82;1.20;;;7.70;99.90;;;6.55;100.00;97902.44;5053747;28;20049;-73
2023/03/27 10:13:50;;;;;;;7.75;1.90;;;7.70;99.90;;;6.84;100.00;97909.53;5044128;28;20060;-73
2023/03/27 10:16:19;;;;;;;7.85;1.40;;;7.90;99.90;;;6.75;100.00;97907.16;5042464;28;20359;-74
2023/03/27 10:18:51;;;;;;;6.30;1.10;;;7.80;99.90;;;6.18;100.00;97904.88;5042158;28;20067;-73
2023/03/27 10:21:27;;;;;;;7.43;1.23;;;7.60;99.90;;;6.13;100.00;97906.72;5044138;28;20487;-74
2023/03/27 10:24:29;;;;;;;5.63;1.20;;;7.10;99.90;;;5.87;100.00;97910.59;5042526;28;20055;-75
2023/03/27 10:27:00;;;;;;;6.95;1.40;;;6.90;99.90;;;5.63;100.00;97910.19;5054634;28;20127;-74
2023/03/27 10:29:36;;;;;;;6.20;1.40;;;6.70;99.90;;;5.64;100.00;97909.28;5055831;28;20063;-74
2023/03/27 10:32:07;;;;;;;7.30;1.60;;;6.60;99.90;;;6.31;100.00;97908.09;5042306;28;20052;-74
2023/03/27 10:34:50;;;;;;;7.32;1.75;;;6.80;99.90;;;7.35;100.00;97904.94;5041125;28;20052;-74
2023/03/27 10:37:31;;;;;;;7.60;1.50;;;7.20;99.90;;;7.39;100.00;97893.59;5056973;28;20476;-75
2023/03/27 10:40:08;;;;;;;8.25;1.33;;;7.80;99.90;;;7.81;100.00;97904.59;5055782;28;20619;-74
2023/03/27 10:42:35;;;;;;;8.00;1.38;;;7.70;99.90;;;6.77;100.00;97896.78;5044235;28;20430;-74
2023/03/27 10:45:06;;;;;;;7.40;0.90;;;7.60;99.90;;;7.01;100.00;97888.50;5056735;28;20080;-75
2023/03/27 10:47:34;;;;;;;7.90;1.23;;;7.70;99.90;;;6.58;100.00;97894.63;5039339;28;20041;-73
2023/03/27 10:50:23;;;;;;;6.72;1.58;;;7.70;99.90;;;6.44;100.00;97901.81;5043484;28;20147;-73
2023/03/27 10:53:29;;;;;;;5.43;1.02;;;7.50;99.90;;;6.53;100.00;97906.75;5058868;28;20052;-73